sensor_id;sensor_type;location;lat;lon;timestamp;pressure;altitude;pressure_sealevel;temperature;humidity
35806;BME280;21925;44.608;11.580;2022-09-23T00:00:04;102173.50;;;11.82;100.00
35806;BME280;21925;44.608;11.580;2022-09-23T00:02:30;102174.81;;;11.93;100.00
35806;BME280;21925;44.608;11.580;2022-09-23T00:04:55;102164.31;;;12.03;100.00
35806;BME280;21925;44.608;11.580;2022-09-23T00:07:21;102179.34;;;12.05;100.00
35806;BME280;21925;44.608;11.580;2022-09-23T00:09:47;102185.34;;;12.07;100.00
35806;BME280;21925;44.608;11.580;2022-09-23T00:12:12;102168.84;;;11.82;98.47
35806;BME280;21925;44.608;11.580;2022-09-23T00:14:38;102185.16;;;11.95;98.06
35806;BME280;21925;44.608;11.580;2022-09-23T00:17:04;102182.06;;;11.80;100.00
35806;BME280;21925;44.608;11.580;2022-09-23T00:19:30;102172.22;;;11.88;100.00
35806;BME280;21925;44.608;11.580;2022-09-23T00:21:55;102184.84;;;12.05;100.00
35806;BME280;21925;44.608;11.580;2022-09-23T00:24:22;102135.19;;;11.77;100.00
35806;BME280;21925;44.608;11.580;2022-09-23T00:26:48;102170.44;;;12.00;100.00
35806;BME280;21925;44.608;11.580;2022-09-23T00:29:13;102176.28;;;11.98;100.00
35806;BME280;21925;44.608;11.580;2022-09-23T00:31:40;102162.84;;;11.89;100.00
35806;BME280;21925;44.608;11.580;2022-09-23T00:34:09;102161.06;;;11.84;100.00
35806;BME280;21925;44.608;11.580;2022-09-23T00:36:35;102176.41;;;11.77;100.00
35806;BME280;21925;44.608;11.580;2022-09-23T00:39:01;102151.66;;;11.68;100.00
35806;BME280;21925;44.608;11.580;2022-09-23T00:41:28;102118.84;;;11.63;100.00
35806;BME280;21925;44.608;11.580;2022-09-23T00:43:59;102176.75;;;11.92;100.00
35806;BME280;21925;44.608;11.580;2022-09-23T00:46:31;102173.53;;;11.90;100.00
35806;BME280;21925;44.608;11.580;2022-09-23T00:49:27;102169.81;;;11.94;100.00
35806;BME280;21925;44.608;11.580;2022-09-23T00:51:59;102176.75;;;11.92;100.00
35806;BME280;21925;44.608;11.580;2022-09-23T00:54:28;102159.25;;;11.80;100.00
35806;BME280;21925;44.608;11.580;2022-09-23T00:56:54;102177.25;;;11.86;100.00
35806;BME280;21925;44.608;11.580;2022-09-23T00:59:20;102170.91;;;11.77;100.00
35806;BME280;21925;44.608;11.580;2022-09-23T01:01:50;102149.97;;;11.50;100.00
35806;BME280;21925;44.608;11.580;2022-09-23T01:04:20;102171.13;;;11.41;100.00
35806;BME280;21925;44.608;11.580;2022-09-23T01:06:48;102125.47;;;11.15;99.37
35806;BME280;21925;44.608;11.580;2022-09-23T01:09:14;102160.75;;;11.30;99.75
35806;BME280;21925;44.608;11.580;2022-09-23T01:17:10;102137.00;;;10.95;96.95
35806;BME280;21925;44.608;11.580;2022-09-23T01:25:39;102169.63;;;10.97;100.00
35806;BME280;21925;44.608;11.580;2022-09-23T01:39:12;102160.50;;;10.79;100.00
35806;BME280;21925;44.608;11.580;2022-09-23T01:41:55;102164.22;;;10.83;100.00
35806;BME280;21925;44.608;11.580;2022-09-23T01:44:45;102147.00;;;10.61;100.00
35806;BME280;21925;44.608;11.580;2022-09-23T01:47:23;102163.63;;;10.64;100.00
35806;BME280;21925;44.608;11.580;2022-09-23T01:49:56;102167.50;;;10.63;99.41
35806;BME280;21925;44.608;11.580;2022-09-23T01:52:39;102161.53;;;10.39;97.07
35806;BME280;21925;44.608;11.580;2022-09-23T01:55:20;102167.56;;;10.50;98.75
35806;BME280;21925;44.608;11.580;2022-09-23T01:57:53;102164.69;;;10.55;100.00
35806;BME280;21925;44.608;11.580;2022-09-23T02:00:22;102162.00;;;10.63;100.00
35806;BME280;21925;44.608;11.580;2022-09-23T02:02:56;102111.28;;;10.52;100.00
35806;BME280;21925;44.608;11.580;2022-09-23T02:05:25;102170.88;;;10.91;100.00
35806;BME280;21925;44.608;11.580;2022-09-23T02:07:56;102171.91;;;11.03;100.00
35806;BME280;21925;44.608;11.580;2022-09-23T02:13:05;102159.41;;;11.19;100.00
35806;BME280;21925;44.608;11.580;2022-09-23T02:15:39;102161.75;;;11.04;100.00
35806;BME280;21925;44.608;11.580;2022-09-23T02:18:15;102164.63;;;10.99;100.00
35806;BME280;21925;44.608;11.580;2022-09-23T02:20:45;102178.34;;;10.99;100.00
35806;BME280;21925;44.608;11.580;2022-09-23T02:23:14;102166.34;;;10.86;100.00
35806;BME280;21925;44.608;11.580;2022-09-23T02:26:20;102184.19;;;11.06;100.00
35806;BME280;21925;44.608;11.580;2022-09-23T02:28:55;102184.97;;;10.98;100.00
35806;BME280;21925;44.608;11.580;2022-09-23T02:39:36;102167.25;;;10.73;100.00
35806;BME280;21925;44.608;11.580;2022-09-23T02:42:07;102161.06;;;10.68;100.00
35806;BME280;21925;44.608;11.580;2022-09-23T02:44:35;102172.72;;;10.73;100.00
35806;BME280;21925;44.608;11.580;2022-09-23T02:47:01;102170.03;;;10.82;100.00
35806;BME280;21925;44.608;11.580;2022-09-23T02:49:28;102169.41;;;10.85;100.00
35806;BME280;21925;44.608;11.580;2022-09-23T02:51:59;102153.22;;;10.75;100.00
35806;BME280;21925;44.608;11.580;2022-09-23T02:54:27;102175.94;;;10.97;100.00
35806;BME280;21925;44.608;11.580;2022-09-23T02:56:53;102179.66;;;11.01;100.00
35806;BME280;21925;44.608;11.580;2022-09-23T02:59:21;102182.97;;;10.90;100.00
35806;BME280;21925;44.608;11.580;2022-09-23T03:05:08;102176.72;;;10.98;100.00
35806;BME280;21925;44.608;11.580;2022-09-23T03:07:48;102165.06;;;10.92;100.00
35806;BME280;21925;44.608;11.580;2022-09-23T03:11:08;102161.13;;;10.76;100.00
35806;BME280;21925;44.608;11.580;2022-09-23T03:15:36;102167.44;;;10.77;100.00
35806;BME280;21925;44.608;11.580;2022-09-23T03:18:13;102142.31;;;10.61;100.00
35806;BME280;21925;44.608;11.580;2022-09-23T03:20:45;102155.88;;;10.88;100.00
35806;BME280;21925;44.608;11.580;2022-09-23T03:23:18;102154.06;;;10.84;100.00
35806;BME280;21925;44.608;11.580;2022-09-23T03:25:48;102162.13;;;10.80;100.00
35806;BME280;21925;44.608;11.580;2022-09-23T03:28:15;102146.72;;;10.71;100.00
35806;BME280;21925;44.608;11.580;2022-09-23T03:30:44;102155.63;;;10.76;100.00
35806;BME280;21925;44.608;11.580;2022-09-23T03:33:13;102142.13;;;10.58;100.00
35806;BME280;21925;44.608;11.580;2022-09-23T03:35:50;102120.91;;;10.41;100.00
35806;BME280;21925;44.608;11.580;2022-09-23T03:38:39;102155.41;;;10.64;100.00
35806;BME280;21925;44.608;11.580;2022-09-23T03:41:10;102147.28;;;10.59;100.00
35806;BME280;21925;44.608;11.580;2022-09-23T03:43:42;102166.84;;;10.66;100.00
35806;BME280;21925;44.608;11.580;2022-09-23T03:46:08;102161.38;;;10.66;100.00
35806;BME280;21925;44.608;11.580;2022-09-23T03:48:34;102141.50;;;10.61;100.00
35806;BME280;21925;44.608;11.580;2022-09-23T03:51:12;102148.66;;;10.70;100.00
35806;BME280;21925;44.608;11.580;2022-09-23T03:53:42;102140.75;;;10.69;100.00
35806;BME280;21925;44.608;11.580;2022-09-23T03:56:07;102122.59;;;10.59;100.00
35806;BME280;21925;44.608;11.580;2022-09-23T03:58:36;102116.16;;;10.55;100.00
35806;BME280;21925;44.608;11.580;2022-09-23T04:01:02;102123.44;;;10.60;100.00
35806;BME280;21925;44.608;11.580;2022-09-23T04:03:28;102134.75;;;10.67;100.00
35806;BME280;21925;44.608;11.580;2022-09-23T04:05:54;102149.97;;;10.73;100.00
35806;BME280;21925;44.608;11.580;2022-09-23T04:08:20;102130.91;;;10.68;100.00
35806;BME280;21925;44.608;11.580;2022-09-23T04:10:45;102134.94;;;10.70;100.00
35806;BME280;21925;44.608;11.580;2022-09-23T04:13:11;102126.47;;;10.58;100.00
35806;BME280;21925;44.608;11.580;2022-09-23T04:15:37;102140.78;;;10.77;100.00
35806;BME280;21925;44.608;11.580;2022-09-23T04:18:02;102133.81;;;10.71;100.00
35806;BME280;21925;44.608;11.580;2022-09-23T04:20:28;102137.06;;;10.73;100.00
35806;BME280;21925;44.608;11.580;2022-09-23T04:22:55;102146.44;;;10.81;100.00
35806;BME280;21925;44.608;11.580;2022-09-23T04:25:20;102130.94;;;10.76;100.00
35806;BME280;21925;44.608;11.580;2022-09-23T04:27:46;102135.91;;;10.74;100.00
35806;BME280;21925;44.608;11.580;2022-09-23T04:30:12;102123.34;;;10.73;100.00
35806;BME280;21925;44.608;11.580;2022-09-23T04:32:38;102106.78;;;10.56;100.00
35806;BME280;21925;44.608;11.580;2022-09-23T04:35:04;102144.16;;;10.74;100.00
35806;BME280;21925;44.608;11.580;2022-09-23T04:37:30;102086.25;;;10.24;100.00
35806;BME280;21925;44.608;11.580;2022-09-23T04:39:56;102105.56;;;10.40;100.00
35806;BME280;21925;44.608;11.580;2022-09-23T04:42:22;102115.97;;;10.30;100.00
35806;BME280;21925;44.608;11.580;2022-09-23T04:44:47;102138.84;;;10.47;100.00
35806;BME280;21925;44.608;11.580;2022-09-23T04:47:13;102138.34;;;10.45;100.00
35806;BME280;21925;44.608;11.580;2022-09-23T04:49:39;102085.03;;;10.08;100.00
35806;BME280;21925;44.608;11.580;2022-09-23T04:52:05;102137.59;;;10.53;100.00
35806;BME280;21925;44.608;11.580;2022-09-23T04:54:31;102135.19;;;10.60;100.00
35806;BME280;21925;44.608;11.580;2022-09-23T04:56:57;102137.75;;;10.57;100.00
35806;BME280;21925;44.608;11.580;2022-09-23T04:59:23;102136.97;;;10.56;100.00
35806;BME280;21925;44.608;11.580;2022-09-23T05:01:49;102144.91;;;10.66;100.00
35806;BME280;21925;44.608;11.580;2022-09-23T05:04:16;102121.75;;;10.50;100.00
35806;BME280;21925;44.608;11.580;2022-09-23T05:06:42;102137.50;;;10.67;100.00
35806;BME280;21925;44.608;11.580;2022-09-23T05:09:15;102075.50;;;10.27;100.00
35806;BME280;21925;44.608;11.580;2022-09-23T05:11:41;102102.19;;;10.43;100.00
35806;BME280;21925;44.608;11.580;2022-09-23T05:14:07;102131.66;;;10.60;100.00
35806;BME280;21925;44.608;11.580;2022-09-23T05:16:33;102131.16;;;10.58;100.00
35806;BME280;21925;44.608;11.580;2022-09-23T05:19:00;102117.69;;;10.48;100.00
35806;BME280;21925;44.608;11.580;2022-09-23T05:21:27;102133.41;;;10.56;100.00
35806;BME280;21925;44.608;11.580;2022-09-23T05:23:56;102122.25;;;10.52;100.00
35806;BME280;21925;44.608;11.580;2022-09-23T05:26:27;102130.22;;;10.62;100.00
35806;BME280;21925;44.608;11.580;2022-09-23T05:28:54;102134.16;;;10.70;100.00
35806;BME280;21925;44.608;11.580;2022-09-23T05:31:21;102135.44;;;10.72;100.00
35806;BME280;21925;44.608;11.580;2022-09-23T05:33:55;102132.34;;;10.65;100.00
35806;BME280;21925;44.608;11.580;2022-09-23T05:36:22;102137.19;;;10.68;100.00
35806;BME280;21925;44.608;11.580;2022-09-23T05:38:49;102108.69;;;10.47;100.00
35806;BME280;21925;44.608;11.580;2022-09-23T05:41:15;102130.97;;;10.54;100.00
35806;BME280;21925;44.608;11.580;2022-09-23T05:43:42;102127.50;;;10.40;100.00
35806;BME280;21925;44.608;11.580;2022-09-23T05:46:15;102129.00;;;10.46;100.00
35806;BME280;21925;44.608;11.580;2022-09-23T05:48:42;102110.31;;;10.48;100.00
35806;BME280;21925;44.608;11.580;2022-09-23T05:51:13;102132.03;;;10.67;100.00
35806;BME280;21925;44.608;11.580;2022-09-23T05:53:40;102122.09;;;10.79;100.00
35806;BME280;21925;44.608;11.580;2022-09-23T05:56:13;102130.66;;;10.86;100.00
35806;BME280;21925;44.608;11.580;2022-09-23T05:58:39;102131.53;;;10.95;100.00
35806;BME280;21925;44.608;11.580;2022-09-23T06:01:13;102131.06;;;11.02;100.00
35806;BME280;21925;44.608;11.580;2022-09-23T06:03:40;102123.44;;;10.90;100.00
35806;BME280;21925;44.608;11.580;2022-09-23T06:06:06;102138.53;;;11.10;100.00
35806;BME280;21925;44.608;11.580;2022-09-23T06:08:32;102121.13;;;11.22;100.00
35806;BME280;21925;44.608;11.580;2022-09-23T06:11:03;102135.72;;;11.40;100.00
35806;BME280;21925;44.608;11.580;2022-09-23T06:13:32;102122.47;;;11.42;100.00
35806;BME280;21925;44.608;11.580;2022-09-23T06:15:59;102113.44;;;11.41;100.00
35806;BME280;21925;44.608;11.580;2022-09-23T06:18:24;102139.38;;;11.66;100.00
35806;BME280;21925;44.608;11.580;2022-09-23T06:20:50;102135.81;;;11.74;100.00
35806;BME280;21925;44.608;11.580;2022-09-23T06:23:16;102107.38;;;11.78;100.00
35806;BME280;21925;44.608;11.580;2022-09-23T06:25:41;102126.97;;;12.10;100.00
35806;BME280;21925;44.608;11.580;2022-09-23T06:28:07;102136.16;;;12.40;100.00
35806;BME280;21925;44.608;11.580;2022-09-23T06:30:37;102119.47;;;12.53;100.00
35806;BME280;21925;44.608;11.580;2022-09-23T06:33:04;102135.09;;;12.78;100.00
35806;BME280;21925;44.608;11.580;2022-09-23T06:35:29;102136.22;;;12.77;100.00
35806;BME280;21925;44.608;11.580;2022-09-23T06:37:57;102129.78;;;12.90;100.00
35806;BME280;21925;44.608;11.580;2022-09-23T06:40:23;102136.59;;;13.21;100.00
35806;BME280;21925;44.608;11.580;2022-09-23T06:42:57;102135.84;;;13.41;100.00
35806;BME280;21925;44.608;11.580;2022-09-23T06:45:23;102110.19;;;13.49;100.00
35806;BME280;21925;44.608;11.580;2022-09-23T06:47:56;102093.25;;;13.39;99.73
35806;BME280;21925;44.608;11.580;2022-09-23T06:50:26;102142.66;;;13.72;98.27
35806;BME280;21925;44.608;11.580;2022-09-23T06:52:54;102122.00;;;13.78;98.61
35806;BME280;21925;44.608;11.580;2022-09-23T06:55:24;102145.06;;;13.94;97.52
35806;BME280;21925;44.608;11.580;2022-09-23T06:57:51;102143.88;;;14.24;96.47
35806;BME280;21925;44.608;11.580;2022-09-23T07:00:17;102137.72;;;14.39;92.97
35806;BME280;21925;44.608;11.580;2022-09-23T07:02:44;102144.59;;;14.86;93.26
35806;BME280;21925;44.608;11.580;2022-09-23T07:05:10;102143.56;;;15.02;91.65
35806;BME280;21925;44.608;11.580;2022-09-23T07:07:36;102144.09;;;14.84;89.02
35806;BME280;21925;44.608;11.580;2022-09-23T07:10:03;102090.94;;;14.87;90.28
35806;BME280;21925;44.608;11.580;2022-09-23T07:12:31;102146.97;;;15.31;87.47
35806;BME280;21925;44.608;11.580;2022-09-23T07:14:56;102141.66;;;15.38;86.58
35806;BME280;21925;44.608;11.580;2022-09-23T07:17:23;102147.06;;;15.59;85.46
35806;BME280;21925;44.608;11.580;2022-09-23T07:19:51;102144.41;;;15.74;83.46
35806;BME280;21925;44.608;11.580;2022-09-23T07:22:22;102138.66;;;16.18;85.86
35806;BME280;21925;44.608;11.580;2022-09-23T07:24:52;102147.97;;;16.38;82.39
35806;BME280;21925;44.608;11.580;2022-09-23T07:27:25;102150.44;;;16.55;80.56
35806;BME280;21925;44.608;11.580;2022-09-23T07:29:52;102157.56;;;16.56;80.68
35806;BME280;21925;44.608;11.580;2022-09-23T07:32:19;102138.31;;;16.75;78.93
35806;BME280;21925;44.608;11.580;2022-09-23T07:34:46;102153.09;;;17.09;78.27
35806;BME280;21925;44.608;11.580;2022-09-23T07:37:14;102154.38;;;17.27;77.28
35806;BME280;21925;44.608;11.580;2022-09-23T07:39:40;102158.38;;;17.14;74.07
35806;BME280;21925;44.608;11.580;2022-09-23T07:42:06;102163.34;;;17.36;73.20
35806;BME280;21925;44.608;11.580;2022-09-23T07:44:32;102153.63;;;17.61;73.52
35806;BME280;21925;44.608;11.580;2022-09-23T07:46:59;102168.84;;;17.67;72.65
35806;BME280;21925;44.608;11.580;2022-09-23T07:49:26;102158.88;;;17.81;71.75
35806;BME280;21925;44.608;11.580;2022-09-23T07:51:52;102143.66;;;18.10;73.13
35806;BME280;21925;44.608;11.580;2022-09-23T07:54:18;102173.69;;;18.39;71.25
35806;BME280;21925;44.608;11.580;2022-09-23T07:56:45;102161.75;;;18.38;71.44
35806;BME280;21925;44.608;11.580;2022-09-23T07:59:13;102175.19;;;18.74;68.98
35806;BME280;21925;44.608;11.580;2022-09-23T08:01:44;102162.09;;;18.74;68.17
35806;BME280;21925;44.608;11.580;2022-09-23T08:04:16;102172.63;;;19.07;69.73
35806;BME280;21925;44.608;11.580;2022-09-23T08:06:44;102155.50;;;19.23;66.18
35806;BME280;21925;44.608;11.580;2022-09-23T08:09:11;102175.47;;;19.29;65.20
35806;BME280;21925;44.608;11.580;2022-09-23T08:11:37;102163.56;;;19.32;63.45
35806;BME280;21925;44.608;11.580;2022-09-23T08:14:10;102166.56;;;19.42;63.20
35806;BME280;21925;44.608;11.580;2022-09-23T08:16:38;102168.78;;;20.07;64.95
35806;BME280;21925;44.608;11.580;2022-09-23T08:19:05;102174.34;;;20.07;61.08
35806;BME280;21925;44.608;11.580;2022-09-23T08:21:31;102176.31;;;20.36;60.40
35806;BME280;21925;44.608;11.580;2022-09-23T08:23:57;102163.97;;;20.67;60.63
35806;BME280;21925;44.608;11.580;2022-09-23T08:26:23;102165.31;;;21.16;63.10
35806;BME280;21925;44.608;11.580;2022-09-23T08:28:49;102172.72;;;21.41;63.52
35806;BME280;21925;44.608;11.580;2022-09-23T08:31:18;102180.16;;;21.73;60.34
35806;BME280;21925;44.608;11.580;2022-09-23T08:33:44;102157.53;;;21.85;60.16
35806;BME280;21925;44.608;11.580;2022-09-23T08:36:09;102170.47;;;22.14;59.41
35806;BME280;21925;44.608;11.580;2022-09-23T08:38:35;102175.25;;;22.10;56.15
35806;BME280;21925;44.608;11.580;2022-09-23T08:41:15;102184.34;;;22.71;59.11
35806;BME280;21925;44.608;11.580;2022-09-23T08:43:50;102184.41;;;23.03;57.08
35806;BME280;21925;44.608;11.580;2022-09-23T08:46:22;102178.88;;;23.44;56.64
35806;BME280;21925;44.608;11.580;2022-09-23T08:48:49;102172.91;;;23.56;55.95
35806;BME280;21925;44.608;11.580;2022-09-23T08:51:21;102176.47;;;23.57;54.81
35806;BME280;21925;44.608;11.580;2022-09-23T08:53:48;102176.91;;;23.55;53.82
35806;BME280;21925;44.608;11.580;2022-09-23T08:56:19;102173.72;;;23.81;54.59
35806;BME280;21925;44.608;11.580;2022-09-23T08:59:11;102172.88;;;23.95;55.29
35806;BME280;21925;44.608;11.580;2022-09-23T09:04:17;102168.41;;;24.18;56.90
35806;BME280;21925;44.608;11.580;2022-09-23T09:06:48;102165.53;;;24.39;55.76
35806;BME280;21925;44.608;11.580;2022-09-23T09:09:26;102151.16;;;24.30;55.09
35806;BME280;21925;44.608;11.580;2022-09-23T09:12:07;102159.09;;;24.52;53.81
35806;BME280;21925;44.608;11.580;2022-09-23T09:17:14;102140.59;;;24.69;52.76
35806;BME280;21925;44.608;11.580;2022-09-23T09:19:55;102147.69;;;24.84;51.46
35806;BME280;21925;44.608;11.580;2022-09-23T09:22:38;102138.19;;;25.28;52.32
35806;BME280;21925;44.608;11.580;2022-09-23T09:27:44;102125.06;;;25.15;49.50
35806;BME280;21925;44.608;11.580;2022-09-23T09:30:11;102123.31;;;25.31;50.98
35806;BME280;21925;44.608;11.580;2022-09-23T09:32:47;102120.28;;;25.12;49.31
35806;BME280;21925;44.608;11.580;2022-09-23T09:35:22;102122.19;;;24.61;51.22
35806;BME280;21925;44.608;11.580;2022-09-23T09:37:51;102120.44;;;24.84;50.74
35806;BME280;21925;44.608;11.580;2022-09-23T09:40:16;102116.97;;;25.20;50.67
35806;BME280;21925;44.608;11.580;2022-09-23T09:42:47;102120.75;;;25.47;50.83
35806;BME280;21925;44.608;11.580;2022-09-23T09:48:45;102115.47;;;25.96;49.48
35806;BME280;21925;44.608;11.580;2022-09-23T09:51:20;102111.66;;;26.47;49.67
35806;BME280;21925;44.608;11.580;2022-09-23T09:53:46;102120.22;;;26.66;49.31
35806;BME280;21925;44.608;11.580;2022-09-23T09:56:14;102084.81;;;26.42;48.12
35806;BME280;21925;44.608;11.580;2022-09-23T09:58:49;102111.81;;;25.63;45.48
35806;BME280;21925;44.608;11.580;2022-09-23T10:01:24;102113.19;;;25.84;48.78
35806;BME280;21925;44.608;11.580;2022-09-23T10:03:52;102100.25;;;26.83;48.88
35806;BME280;21925;44.608;11.580;2022-09-23T10:06:23;102098.09;;;26.94;47.83
35806;BME280;21925;44.608;11.580;2022-09-23T10:09:15;102105.00;;;27.39;48.14
35806;BME280;21925;44.608;11.580;2022-09-23T10:12:20;102098.69;;;27.54;47.77
35806;BME280;21925;44.608;11.580;2022-09-23T10:14:48;102087.91;;;27.27;47.45
35806;BME280;21925;44.608;11.580;2022-09-23T10:17:20;102096.50;;;26.93;46.31
35806;BME280;21925;44.608;11.580;2022-09-23T10:19:55;102105.84;;;26.61;45.78
35806;BME280;21925;44.608;11.580;2022-09-23T10:22:27;102084.13;;;26.87;46.74
35806;BME280;21925;44.608;11.580;2022-09-23T10:24:57;102091.09;;;26.79;45.39
35806;BME280;21925;44.608;11.580;2022-09-23T10:27:31;102088.47;;;27.41;48.08
35806;BME280;21925;44.608;11.580;2022-09-23T10:30:01;102077.78;;;27.75;45.83
35806;BME280;21925;44.608;11.580;2022-09-23T10:35:20;102080.81;;;27.64;46.30
35806;BME280;21925;44.608;11.580;2022-09-23T10:37:50;102078.47;;;28.02;45.36
35806;BME280;21925;44.608;11.580;2022-09-23T10:47:21;102064.50;;;28.14;44.65
35806;BME280;21925;44.608;11.580;2022-09-23T10:50:16;102072.84;;;28.21;44.90
35806;BME280;21925;44.608;11.580;2022-09-23T10:53:03;102072.47;;;28.00;44.90
35806;BME280;21925;44.608;11.580;2022-09-23T10:55:47;102074.53;;;27.96;45.84
35806;BME280;21925;44.608;11.580;2022-09-23T11:03:52;102064.44;;;29.52;44.23
35806;BME280;21925;44.608;11.580;2022-09-23T11:23:38;102034.78;;;30.00;43.94
35806;BME280;21925;44.608;11.580;2022-09-23T11:29:10;102035.06;;;29.02;42.36
35806;BME280;21925;44.608;11.580;2022-09-23T11:35:12;102030.56;;;28.88;41.74
35806;BME280;21925;44.608;11.580;2022-09-23T11:37:22;102014.16;;;28.48;43.27
35806;BME280;21925;44.608;11.580;2022-09-23T11:42:42;102018.88;;;28.70;43.45
35806;BME280;21925;44.608;11.580;2022-09-23T11:45:21;101991.31;;;28.94;42.21
35806;BME280;21925;44.608;11.580;2022-09-23T11:47:54;102018.94;;;29.75;44.21
35806;BME280;21925;44.608;11.580;2022-09-23T11:50:39;102015.19;;;29.21;42.36
35806;BME280;21925;44.608;11.580;2022-09-23T11:53:30;102013.03;;;29.69;42.35
35806;BME280;21925;44.608;11.580;2022-09-23T12:01:44;102004.81;;;29.75;43.62
35806;BME280;21925;44.608;11.580;2022-09-23T12:04:35;102001.25;;;29.58;40.48
35806;BME280;21925;44.608;11.580;2022-09-23T12:07:11;101988.56;;;28.90;42.01
35806;BME280;21925;44.608;11.580;2022-09-23T12:10:01;101999.00;;;29.21;41.22
35806;BME280;21925;44.608;11.580;2022-09-23T12:20:49;101976.16;;;28.52;43.09
35806;BME280;21925;44.608;11.580;2022-09-23T12:25:59;101978.47;;;28.41;38.97
35806;BME280;21925;44.608;11.580;2022-09-23T12:28:37;101965.78;;;28.65;41.05
35806;BME280;21925;44.608;11.580;2022-09-23T12:31:09;101973.88;;;29.11;42.16
35806;BME280;21925;44.608;11.580;2022-09-23T12:33:37;101959.88;;;28.76;39.83
35806;BME280;21925;44.608;11.580;2022-09-23T12:36:12;101952.44;;;28.50;42.74
35806;BME280;21925;44.608;11.580;2022-09-23T12:38:47;101964.56;;;28.82;42.96
35806;BME280;21925;44.608;11.580;2022-09-23T12:41:34;101955.19;;;29.01;41.84
35806;BME280;21925;44.608;11.580;2022-09-23T12:46:41;101951.63;;;29.13;41.64
35806;BME280;21925;44.608;11.580;2022-09-23T12:54:35;101932.97;;;28.87;41.57
35806;BME280;21925;44.608;11.580;2022-09-23T12:57:05;101930.53;;;27.87;40.03
35806;BME280;21925;44.608;11.580;2022-09-23T13:02:36;101921.94;;;27.94;41.24
35806;BME280;21925;44.608;11.580;2022-09-23T13:07:51;101933.81;;;27.66;41.78
35806;BME280;21925;44.608;11.580;2022-09-23T13:10:48;101912.91;;;27.83;42.14
35806;BME280;21925;44.608;11.580;2022-09-23T13:15:45;101922.69;;;26.97;40.96
35806;BME280;21925;44.608;11.580;2022-09-23T13:20:44;101901.69;;;26.79;41.60
35806;BME280;21925;44.608;11.580;2022-09-23T13:23:29;101904.50;;;27.25;41.39
35806;BME280;21925;44.608;11.580;2022-09-23T13:26:08;101882.56;;;27.71;42.60
35806;BME280;21925;44.608;11.580;2022-09-23T13:28:57;101887.59;;;27.63;40.35
35806;BME280;21925;44.608;11.580;2022-09-23T13:31:23;101887.94;;;27.46;41.43
35806;BME280;21925;44.608;11.580;2022-09-23T13:34:02;101897.34;;;27.20;40.06
35806;BME280;21925;44.608;11.580;2022-09-23T13:36:29;101879.63;;;27.00;40.82
35806;BME280;21925;44.608;11.580;2022-09-23T13:41:41;101887.25;;;27.00;41.71
35806;BME280;21925;44.608;11.580;2022-09-23T13:44:15;101876.41;;;27.21;40.97
35806;BME280;21925;44.608;11.580;2022-09-23T13:46:53;101873.44;;;27.28;41.59
35806;BME280;21925;44.608;11.580;2022-09-23T13:49:25;101883.22;;;27.59;42.82
35806;BME280;21925;44.608;11.580;2022-09-23T13:51:53;101866.91;;;27.12;41.60
35806;BME280;21925;44.608;11.580;2022-09-23T13:54:30;101863.53;;;27.20;41.50
35806;BME280;21925;44.608;11.580;2022-09-23T13:56:58;101867.88;;;27.05;42.23
35806;BME280;21925;44.608;11.580;2022-09-23T13:59:27;101856.84;;;26.91;42.01
35806;BME280;21925;44.608;11.580;2022-09-23T14:02:13;101833.25;;;27.24;41.38
35806;BME280;21925;44.608;11.580;2022-09-23T14:04:41;101859.91;;;27.39;42.51
35806;BME280;21925;44.608;11.580;2022-09-23T14:07:08;101856.84;;;26.91;41.67
35806;BME280;21925;44.608;11.580;2022-09-23T14:09:35;101823.22;;;26.42;42.61
35806;BME280;21925;44.608;11.580;2022-09-23T14:12:04;101836.94;;;26.37;42.44
35806;BME280;21925;44.608;11.580;2022-09-23T14:14:34;101845.34;;;26.40;41.49
35806;BME280;21925;44.608;11.580;2022-09-23T14:17:01;101847.47;;;26.33;41.20
35806;BME280;21925;44.608;11.580;2022-09-23T14:19:28;101846.34;;;26.50;41.94
35806;BME280;21925;44.608;11.580;2022-09-23T14:21:54;101814.59;;;26.72;42.23
35806;BME280;21925;44.608;11.580;2022-09-23T14:27:00;101826.13;;;26.58;41.79
35806;BME280;21925;44.608;11.580;2022-09-23T14:29:47;101813.34;;;26.54;42.26
35806;BME280;21925;44.608;11.580;2022-09-23T14:32:19;101797.25;;;26.31;41.49
35806;BME280;21925;44.608;11.580;2022-09-23T14:45:37;101776.41;;;26.06;41.59
35806;BME280;21925;44.608;11.580;2022-09-23T14:48:13;101815.41;;;26.27;41.20
35806;BME280;21925;44.608;11.580;2022-09-23T14:50:48;101798.16;;;26.02;41.04
35806;BME280;21925;44.608;11.580;2022-09-23T14:55:52;101799.59;;;25.61;41.90
35806;BME280;21925;44.608;11.580;2022-09-23T14:58:21;101793.09;;;25.67;42.57
35806;BME280;21925;44.608;11.580;2022-09-23T15:00:55;101775.03;;;25.65;42.29
35806;BME280;21925;44.608;11.580;2022-09-23T15:03:21;101777.00;;;25.68;42.82
35806;BME280;21925;44.608;11.580;2022-09-23T15:05:49;101804.56;;;25.50;43.10
35806;BME280;21925;44.608;11.580;2022-09-23T15:08:21;101803.66;;;25.56;43.07
35806;BME280;21925;44.608;11.580;2022-09-23T15:10:47;101773.50;;;25.34;43.72
35806;BME280;21925;44.608;11.580;2022-09-23T15:13:20;101778.75;;;24.98;42.92
35806;BME280;21925;44.608;11.580;2022-09-23T15:15:46;101798.34;;;25.02;43.15
35806;BME280;21925;44.608;11.580;2022-09-23T15:18:28;101814.75;;;25.10;45.04